sensor_id;sensor_type;location;lat;lon;timestamp;P1;durP1;ratioP1;P2;durP2;ratioP2
14076;SDS011;7114;51.100;13.998;2023-04-16T00:01:13;8.82;;;3.65;;
14076;SDS011;7114;51.100;13.998;2023-04-16T00:03:39;10.00;;;4.15;;
14076;SDS011;7114;51.100;13.998;2023-04-16T00:06:06;9.50;;;3.77;;
14076;SDS011;7114;51.100;13.998;2023-04-16T00:08:32;9.60;;;4.03;;
14076;SDS011;7114;51.100;13.998;2023-04-16T00:11:00;8.95;;;3.75;;
14076;SDS011;7114;51.100;13.998;2023-04-16T00:13:27;8.10;;;3.60;;
14076;SDS011;7114;51.100;13.998;2023-04-16T00:15:53;9.25;;;3.63;;
14076;SDS011;7114;51.100;13.998;2023-04-16T00:18:19;9.07;;;3.70;;
14076;SDS011;7114;51.100;13.998;2023-04-16T00:20:46;9.27;;;3.72;;
14076;SDS011;7114;51.100;13.998;2023-04-16T00:23:13;11.27;;;4.43;;
14076;SDS011;7114;51.100;13.998;2023-04-16T00:25:39;10.68;;;4.43;;
14076;SDS011;7114;51.100;13.998;2023-04-16T00:28:08;13.02;;;4.60;;
14076;SDS011;7114;51.100;13.998;2023-04-16T00:30:34;8.17;;;3.30;;
14076;SDS011;7114;51.100;13.998;2023-04-16T00:33:00;8.10;;;3.03;;
14076;SDS011;7114;51.100;13.998;2023-04-16T00:35:27;8.32;;;3.00;;
14076;SDS011;7114;51.100;13.998;2023-04-16T00:37:53;7.53;;;2.88;;
14076;SDS011;7114;51.100;13.998;2023-04-16T00:40:19;7.57;;;2.70;;
14076;SDS011;7114;51.100;13.998;2023-04-16T00:42:46;7.27;;;2.97;;
14076;SDS011;7114;51.100;13.998;2023-04-16T00:45:13;7.93;;;3.10;;
14076;SDS011;7114;51.100;13.998;2023-04-16T00:47:39;8.85;;;2.97;;
14076;SDS011;7114;51.100;13.998;2023-04-16T00:50:06;7.30;;;2.90;;
14076;SDS011;7114;51.100;13.998;2023-04-16T00:52:33;7.38;;;2.60;;
14076;SDS011;7114;51.100;13.998;2023-04-16T00:54:59;7.00;;;2.53;;
14076;SDS011;7114;51.100;13.998;2023-04-16T00:57:25;7.13;;;2.60;;
14076;SDS011;7114;51.100;13.998;2023-04-16T00:59:52;7.35;;;2.58;;
14076;SDS011;7114;51.100;13.998;2023-04-16T01:02:20;6.80;;;2.85;;
14076;SDS011;7114;51.100;13.998;2023-04-16T01:04:46;8.30;;;3.03;;
14076;SDS011;7114;51.100;13.998;2023-04-16T01:07:13;7.60;;;3.10;;
14076;SDS011;7114;51.100;13.998;2023-04-16T01:09:39;8.57;;;3.28;;
14076;SDS011;7114;51.100;13.998;2023-04-16T01:12:05;9.95;;;3.20;;
14076;SDS011;7114;51.100;13.998;2023-04-16T01:14:31;8.75;;;3.67;;
14076;SDS011;7114;51.100;13.998;2023-04-16T01:17:00;8.27;;;3.35;;
14076;SDS011;7114;51.100;13.998;2023-04-16T01:19:28;7.70;;;2.80;;
14076;SDS011;7114;51.100;13.998;2023-04-16T01:21:56;8.35;;;3.13;;
14076;SDS011;7114;51.100;13.998;2023-04-16T01:24:22;8.52;;;3.15;;
14076;SDS011;7114;51.100;13.998;2023-04-16T01:26:49;7.88;;;3.30;;
14076;SDS011;7114;51.100;13.998;2023-04-16T01:29:15;9.52;;;4.00;;
14076;SDS011;7114;51.100;13.998;2023-04-16T01:31:41;9.93;;;4.20;;
14076;SDS011;7114;51.100;13.998;2023-04-16T01:34:07;9.18;;;4.00;;
14076;SDS011;7114;51.100;13.998;2023-04-16T01:36:34;10.27;;;3.92;;
14076;SDS011;7114;51.100;13.998;2023-04-16T01:39:01;9.75;;;3.75;;
14076;SDS011;7114;51.100;13.998;2023-04-16T01:41:28;9.68;;;4.05;;
14076;SDS011;7114;51.100;13.998;2023-04-16T01:43:55;8.43;;;3.13;;
14076;SDS011;7114;51.100;13.998;2023-04-16T01:46:22;8.00;;;3.03;;
14076;SDS011;7114;51.100;13.998;2023-04-16T01:48:52;8.82;;;3.40;;
14076;SDS011;7114;51.100;13.998;2023-04-16T01:51:19;7.73;;;2.90;;
14076;SDS011;7114;51.100;13.998;2023-04-16T01:53:45;9.23;;;3.55;;
14076;SDS011;7114;51.100;13.998;2023-04-16T01:56:13;8.43;;;3.53;;
14076;SDS011;7114;51.100;13.998;2023-04-16T01:58:39;10.07;;;3.30;;
14076;SDS011;7114;51.100;13.998;2023-04-16T02:01:06;9.27;;;3.47;;
14076;SDS011;7114;51.100;13.998;2023-04-16T02:03:33;8.90;;;3.40;;
14076;SDS011;7114;51.100;13.998;2023-04-16T02:05:59;8.48;;;3.17;;
14076;SDS011;7114;51.100;13.998;2023-04-16T02:08:26;8.88;;;3.75;;
14076;SDS011;7114;51.100;13.998;2023-04-16T02:10:52;9.85;;;3.63;;
14076;SDS011;7114;51.100;13.998;2023-04-16T02:13:20;10.32;;;4.10;;
14076;SDS011;7114;51.100;13.998;2023-04-16T02:15:47;9.20;;;3.53;;
14076;SDS011;7114;51.100;13.998;2023-04-16T02:18:15;10.98;;;4.22;;
14076;SDS011;7114;51.100;13.998;2023-04-16T02:20:41;9.50;;;3.90;;
14076;SDS011;7114;51.100;13.998;2023-04-16T02:23:08;10.07;;;4.20;;
14076;SDS011;7114;51.100;13.998;2023-04-16T02:25:38;9.32;;;4.00;;
14076;SDS011;7114;51.100;13.998;2023-04-16T02:28:05;9.53;;;4.00;;
14076;SDS011;7114;51.100;13.998;2023-04-16T02:30:33;10.02;;;4.43;;
14076;SDS011;7114;51.100;13.998;2023-04-16T02:33:00;9.77;;;4.20;;
14076;SDS011;7114;51.100;13.998;2023-04-16T02:35:27;9.63;;;3.90;;
14076;SDS011;7114;51.100;13.998;2023-04-16T02:37:53;9.68;;;4.10;;
14076;SDS011;7114;51.100;13.998;2023-04-16T02:40:20;9.47;;;3.90;;
14076;SDS011;7114;51.100;13.998;2023-04-16T02:42:46;8.57;;;3.40;;
14076;SDS011;7114;51.100;13.998;2023-04-16T02:45:13;8.20;;;3.20;;
14076;SDS011;7114;51.100;13.998;2023-04-16T02:47:41;8.48;;;3.03;;
14076;SDS011;7114;51.100;13.998;2023-04-16T02:50:07;7.85;;;2.97;;
14076;SDS011;7114;51.100;13.998;2023-04-16T02:52:33;7.37;;;2.93;;
14076;SDS011;7114;51.100;13.998;2023-04-16T02:55:00;8.27;;;3.17;;
14076;SDS011;7114;51.100;13.998;2023-04-16T02:57:26;9.57;;;3.70;;
14076;SDS011;7114;51.100;13.998;2023-04-16T02:59:52;9.32;;;3.47;;
14076;SDS011;7114;51.100;13.998;2023-04-16T03:02:19;8.98;;;3.70;;
14076;SDS011;7114;51.100;13.998;2023-04-16T03:04:47;10.10;;;4.20;;
14076;SDS011;7114;51.100;13.998;2023-04-16T03:07:13;10.10;;;3.90;;
14076;SDS011;7114;51.100;13.998;2023-04-16T03:09:39;10.68;;;4.50;;
14076;SDS011;7114;51.100;13.998;2023-04-16T03:12:05;11.52;;;4.38;;
14076;SDS011;7114;51.100;13.998;2023-04-16T03:14:32;11.48;;;4.97;;
14076;SDS011;7114;51.100;13.998;2023-04-16T03:16:58;12.53;;;4.73;;
14076;SDS011;7114;51.100;13.998;2023-04-16T03:19:24;12.05;;;5.10;;
14076;SDS011;7114;51.100;13.998;2023-04-16T03:21:52;13.10;;;5.15;;
14076;SDS011;7114;51.100;13.998;2023-04-16T03:24:18;11.70;;;4.88;;
14076;SDS011;7114;51.100;13.998;2023-04-16T03:26:44;11.57;;;4.85;;
14076;SDS011;7114;51.100;13.998;2023-04-16T03:29:10;11.43;;;4.67;;
14076;SDS011;7114;51.100;13.998;2023-04-16T03:31:37;10.13;;;4.47;;
14076;SDS011;7114;51.100;13.998;2023-04-16T03:34:03;11.00;;;4.38;;
14076;SDS011;7114;51.100;13.998;2023-04-16T03:36:29;10.30;;;4.15;;
14076;SDS011;7114;51.100;13.998;2023-04-16T03:38:57;10.68;;;4.20;;
14076;SDS011;7114;51.100;13.998;2023-04-16T03:41:24;10.87;;;4.20;;
14076;SDS011;7114;51.100;13.998;2023-04-16T03:43:51;9.98;;;4.00;;
14076;SDS011;7114;51.100;13.998;2023-04-16T03:46:17;10.65;;;4.25;;
14076;SDS011;7114;51.100;13.998;2023-04-16T03:48:43;9.88;;;4.20;;
14076;SDS011;7114;51.100;13.998;2023-04-16T03:51:10;9.07;;;3.55;;
14076;SDS011;7114;51.100;13.998;2023-04-16T03:53:36;9.60;;;3.40;;
14076;SDS011;7114;51.100;13.998;2023-04-16T03:56:04;9.40;;;3.40;;
14076;SDS011;7114;51.100;13.998;2023-04-16T03:58:30;10.60;;;3.83;;
14076;SDS011;7114;51.100;13.998;2023-04-16T04:00:56;9.90;;;4.18;;
14076;SDS011;7114;51.100;13.998;2023-04-16T04:03:22;11.10;;;4.60;;
14076;SDS011;7114;51.100;13.998;2023-04-16T04:05:50;11.30;;;4.83;;
14076;SDS011;7114;51.100;13.998;2023-04-16T04:08:16;13.70;;;5.90;;
14076;SDS011;7114;51.100;13.998;2023-04-16T04:10:42;12.18;;;5.10;;
14076;SDS011;7114;51.100;13.998;2023-04-16T04:13:11;14.27;;;5.32;;
14076;SDS011;7114;51.100;13.998;2023-04-16T04:15:37;12.10;;;5.13;;
14076;SDS011;7114;51.100;13.998;2023-04-16T04:18:03;15.70;;;5.43;;
14076;SDS011;7114;51.100;13.998;2023-04-16T04:20:29;14.07;;;5.30;;
14076;SDS011;7114;51.100;13.998;2023-04-16T04:22:56;14.13;;;5.50;;
14076;SDS011;7114;51.100;13.998;2023-04-16T04:25:22;13.15;;;5.00;;
14076;SDS011;7114;51.100;13.998;2023-04-16T04:27:49;17.05;;;5.38;;
14076;SDS011;7114;51.100;13.998;2023-04-16T04:30:16;13.00;;;4.80;;
14076;SDS011;7114;51.100;13.998;2023-04-16T04:32:42;13.10;;;5.00;;
14076;SDS011;7114;51.100;13.998;2023-04-16T04:35:09;11.95;;;4.80;;
14076;SDS011;7114;51.100;13.998;2023-04-16T04:37:35;15.35;;;5.40;;
14076;SDS011;7114;51.100;13.998;2023-04-16T04:40:01;12.75;;;5.13;;
14076;SDS011;7114;51.100;13.998;2023-04-16T04:42:27;14.83;;;5.10;;
14076;SDS011;7114;51.100;13.998;2023-04-16T04:44:54;16.08;;;5.68;;
14076;SDS011;7114;51.100;13.998;2023-04-16T04:47:21;15.20;;;5.32;;
14076;SDS011;7114;51.100;13.998;2023-04-16T04:49:48;15.35;;;5.75;;
14076;SDS011;7114;51.100;13.998;2023-04-16T04:52:14;12.75;;;5.72;;
14076;SDS011;7114;51.100;13.998;2023-04-16T04:54:40;15.60;;;6.17;;
14076;SDS011;7114;51.100;13.998;2023-04-16T04:57:06;16.35;;;5.63;;
14076;SDS011;7114;51.100;13.998;2023-04-16T04:59:33;17.30;;;6.32;;
14076;SDS011;7114;51.100;13.998;2023-04-16T05:01:59;15.60;;;6.00;;
14076;SDS011;7114;51.100;13.998;2023-04-16T05:04:28;17.27;;;6.90;;
14076;SDS011;7114;51.100;13.998;2023-04-16T05:06:54;15.07;;;6.33;;
14076;SDS011;7114;51.100;13.998;2023-04-16T05:09:21;17.13;;;6.38;;
14076;SDS011;7114;51.100;13.998;2023-04-16T05:11:47;16.15;;;5.97;;
14076;SDS011;7114;51.100;13.998;2023-04-16T05:14:13;15.60;;;6.28;;
14076;SDS011;7114;51.100;13.998;2023-04-16T05:16:40;14.30;;;5.28;;
14076;SDS011;7114;51.100;13.998;2023-04-16T05:19:06;13.77;;;5.70;;
14076;SDS011;7114;51.100;13.998;2023-04-16T05:21:34;15.57;;;6.63;;
14076;SDS011;7114;51.100;13.998;2023-04-16T05:24:00;14.38;;;5.72;;
14076;SDS011;7114;51.100;13.998;2023-04-16T05:26:26;14.82;;;5.68;;
14076;SDS011;7114;51.100;13.998;2023-04-16T05:28:52;13.65;;;5.63;;
14076;SDS011;7114;51.100;13.998;2023-04-16T05:31:19;13.90;;;5.30;;
14076;SDS011;7114;51.100;13.998;2023-04-16T05:33:45;12.95;;;5.70;;
14076;SDS011;7114;51.100;13.998;2023-04-16T05:36:11;14.05;;;6.00;;
14076;SDS011;7114;51.100;13.998;2023-04-16T05:38:39;16.23;;;6.47;;
14076;SDS011;7114;51.100;13.998;2023-04-16T05:41:05;15.50;;;6.35;;
14076;SDS011;7114;51.100;13.998;2023-04-16T05:43:31;17.83;;;7.60;;
14076;SDS011;7114;51.100;13.998;2023-04-16T05:45:58;18.90;;;8.20;;
14076;SDS011;7114;51.100;13.998;2023-04-16T05:48:24;17.15;;;7.20;;
14076;SDS011;7114;51.100;13.998;2023-04-16T05:50:50;15.10;;;7.25;;
14076;SDS011;7114;51.100;13.998;2023-04-16T05:53:17;16.17;;;7.40;;
14076;SDS011;7114;51.100;13.998;2023-04-16T05:55:45;16.37;;;7.40;;
14076;SDS011;7114;51.100;13.998;2023-04-16T05:58:11;18.55;;;7.80;;
14076;SDS011;7114;51.100;13.998;2023-04-16T06:00:37;16.92;;;7.85;;
14076;SDS011;7114;51.100;13.998;2023-04-16T06:03:04;17.08;;;7.55;;
14076;SDS011;7114;51.100;13.998;2023-04-16T06:05:30;17.65;;;7.80;;
14076;SDS011;7114;51.100;13.998;2023-04-16T06:07:56;17.30;;;8.30;;
14076;SDS011;7114;51.100;13.998;2023-04-16T06:10:23;18.63;;;8.25;;
14076;SDS011;7114;51.100;13.998;2023-04-16T06:12:50;17.05;;;7.53;;
14076;SDS011;7114;51.100;13.998;2023-04-16T06:15:19;17.08;;;7.68;;
14076;SDS011;7114;51.100;13.998;2023-04-16T06:17:45;15.23;;;6.82;;
14076;SDS011;7114;51.100;13.998;2023-04-16T06:20:11;16.80;;;7.50;;
14076;SDS011;7114;51.100;13.998;2023-04-16T06:22:38;16.27;;;8.00;;
14076;SDS011;7114;51.100;13.998;2023-04-16T06:25:04;16.67;;;7.65;;
14076;SDS011;7114;51.100;13.998;2023-04-16T06:27:31;16.38;;;7.80;;
14076;SDS011;7114;51.100;13.998;2023-04-16T06:29:59;16.50;;;7.60;;
14076;SDS011;7114;51.100;13.998;2023-04-16T06:32:25;16.53;;;7.37;;
14076;SDS011;7114;51.100;13.998;2023-04-16T06:34:51;15.85;;;7.35;;
14076;SDS011;7114;51.100;13.998;2023-04-16T06:37:18;15.65;;;7.60;;
14076;SDS011;7114;51.100;13.998;2023-04-16T06:39:44;14.70;;;7.15;;
14076;SDS011;7114;51.100;13.998;2023-04-16T06:42:11;14.73;;;7.60;;
14076;SDS011;7114;51.100;13.998;2023-04-16T06:44:37;15.10;;;7.47;;
14076;SDS011;7114;51.100;13.998;2023-04-16T06:47:05;15.93;;;7.70;;
14076;SDS011;7114;51.100;13.998;2023-04-16T06:49:31;14.60;;;7.07;;
14076;SDS011;7114;51.100;13.998;2023-04-16T06:51:57;14.48;;;6.72;;
14076;SDS011;7114;51.100;13.998;2023-04-16T06:54:23;15.77;;;7.03;;
14076;SDS011;7114;51.100;13.998;2023-04-16T06:56:50;15.30;;;7.03;;
14076;SDS011;7114;51.100;13.998;2023-04-16T06:59:16;14.98;;;7.15;;
14076;SDS011;7114;51.100;13.998;2023-04-16T07:01:42;15.55;;;7.10;;
14076;SDS011;7114;51.100;13.998;2023-04-16T07:04:10;15.45;;;7.82;;
14076;SDS011;7114;51.100;13.998;2023-04-16T07:06:36;14.38;;;7.40;;
14076;SDS011;7114;51.100;13.998;2023-04-16T07:09:03;15.10;;;7.43;;
14076;SDS011;7114;51.100;13.998;2023-04-16T07:11:29;16.60;;;7.85;;
14076;SDS011;7114;51.100;13.998;2023-04-16T07:13:55;14.98;;;7.45;;
14076;SDS011;7114;51.100;13.998;2023-04-16T07:16:23;16.42;;;8.35;;
14076;SDS011;7114;51.100;13.998;2023-04-16T07:18:49;17.13;;;8.23;;
14076;SDS011;7114;51.100;13.998;2023-04-16T07:21:17;17.87;;;8.20;;
14076;SDS011;7114;51.100;13.998;2023-04-16T07:23:43;17.25;;;8.40;;
14076;SDS011;7114;51.100;13.998;2023-04-16T07:26:10;15.18;;;7.55;;
14076;SDS011;7114;51.100;13.998;2023-04-16T07:28:36;16.70;;;8.38;;
14076;SDS011;7114;51.100;13.998;2023-04-16T07:31:02;16.42;;;7.80;;
14076;SDS011;7114;51.100;13.998;2023-04-16T07:33:29;18.67;;;8.60;;
14076;SDS011;7114;51.100;13.998;2023-04-16T07:35:55;14.55;;;7.10;;
14076;SDS011;7114;51.100;13.998;2023-04-16T07:38:23;15.00;;;7.50;;
14076;SDS011;7114;51.100;13.998;2023-04-16T07:40:49;15.98;;;8.18;;
14076;SDS011;7114;51.100;13.998;2023-04-16T07:43:15;15.48;;;7.78;;
14076;SDS011;7114;51.100;13.998;2023-04-16T07:45:41;17.10;;;8.17;;
14076;SDS011;7114;51.100;13.998;2023-04-16T07:48:08;17.05;;;8.77;;
14076;SDS011;7114;51.100;13.998;2023-04-16T07:50:34;18.63;;;8.90;;
14076;SDS011;7114;51.100;13.998;2023-04-16T07:53:01;16.83;;;8.55;;
14076;SDS011;7114;51.100;13.998;2023-04-16T07:55:28;15.32;;;8.00;;
14076;SDS011;7114;51.100;13.998;2023-04-16T07:57:54;18.00;;;8.93;;
14076;SDS011;7114;51.100;13.998;2023-04-16T08:00:21;17.60;;;8.55;;
14076;SDS011;7114;51.100;13.998;2023-04-16T08:02:47;15.05;;;7.82;;
14076;SDS011;7114;51.100;13.998;2023-04-16T08:05:13;16.60;;;8.57;;
14076;SDS011;7114;51.100;13.998;2023-04-16T08:07:40;16.27;;;8.38;;
14076;SDS011;7114;51.100;13.998;2023-04-16T08:10:07;15.70;;;8.60;;
14076;SDS011;7114;51.100;13.998;2023-04-16T08:12:35;14.88;;;7.68;;
14076;SDS011;7114;51.100;13.998;2023-04-16T08:15:01;16.23;;;8.93;;
14076;SDS011;7114;51.100;13.998;2023-04-16T08:17:27;14.93;;;8.50;;
14076;SDS011;7114;51.100;13.998;2023-04-16T08:19:54;16.50;;;8.40;;
14076;SDS011;7114;51.100;13.998;2023-04-16T08:22:20;15.13;;;8.43;;
14076;SDS011;7114;51.100;13.998;2023-04-16T08:24:46;18.27;;;9.60;;
14076;SDS011;7114;51.100;13.998;2023-04-16T08:27:12;19.42;;;10.23;;
14076;SDS011;7114;51.100;13.998;2023-04-16T08:29:41;16.83;;;8.98;;
14076;SDS011;7114;51.100;13.998;2023-04-16T08:32:07;16.73;;;9.60;;
14076;SDS011;7114;51.100;13.998;2023-04-16T08:34:34;18.53;;;10.17;;
14076;SDS011;7114;51.100;13.998;2023-04-16T08:37:01;16.23;;;9.10;;
14076;SDS011;7114;51.100;13.998;2023-04-16T08:39:27;16.42;;;8.98;;
14076;SDS011;7114;51.100;13.998;2023-04-16T08:41:53;18.15;;;9.70;;
14076;SDS011;7114;51.100;13.998;2023-04-16T08:44:20;18.50;;;9.98;;
14076;SDS011;7114;51.100;13.998;2023-04-16T08:46:52;17.30;;;9.30;;
14076;SDS011;7114;51.100;13.998;2023-04-16T08:49:21;16.17;;;8.63;;
14076;SDS011;7114;51.100;13.998;2023-04-16T08:51:48;17.40;;;7.95;;
14076;SDS011;7114;51.100;13.998;2023-04-16T08:54:17;15.68;;;7.68;;
14076;SDS011;7114;51.100;13.998;2023-04-16T08:56:56;17.33;;;9.05;;
14076;SDS011;7114;51.100;13.998;2023-04-16T08:59:23;17.60;;;9.37;;
14076;SDS011;7114;51.100;13.998;2023-04-16T09:01:51;17.17;;;9.35;;
14076;SDS011;7114;51.100;13.998;2023-04-16T09:04:18;18.95;;;10.43;;
14076;SDS011;7114;51.100;13.998;2023-04-16T09:06:44;19.23;;;10.32;;
14076;SDS011;7114;51.100;13.998;2023-04-16T09:09:11;19.42;;;10.70;;
14076;SDS011;7114;51.100;13.998;2023-04-16T09:11:38;16.73;;;9.23;;
14076;SDS011;7114;51.100;13.998;2023-04-16T09:14:06;19.58;;;11.02;;
14076;SDS011;7114;51.100;13.998;2023-04-16T09:16:34;17.25;;;9.18;;
14076;SDS011;7114;51.100;13.998;2023-04-16T09:19:02;16.45;;;8.70;;
14076;SDS011;7114;51.100;13.998;2023-04-16T09:21:28;14.88;;;8.27;;
14076;SDS011;7114;51.100;13.998;2023-04-16T09:23:56;13.90;;;7.80;;
14076;SDS011;7114;51.100;13.998;2023-04-16T09:26:22;12.27;;;6.97;;
14076;SDS011;7114;51.100;13.998;2023-04-16T09:28:48;11.00;;;5.90;;
14076;SDS011;7114;51.100;13.998;2023-04-16T09:31:16;11.23;;;5.75;;
14076;SDS011;7114;51.100;13.998;2023-04-16T09:33:43;11.50;;;5.97;;
14076;SDS011;7114;51.100;13.998;2023-04-16T09:36:23;10.70;;;5.83;;
14076;SDS011;7114;51.100;13.998;2023-04-16T09:38:51;10.48;;;5.70;;
14076;SDS011;7114;51.100;13.998;2023-04-16T09:41:18;11.32;;;6.07;;
14076;SDS011;7114;51.100;13.998;2023-04-16T09:43:48;12.10;;;6.97;;
14076;SDS011;7114;51.100;13.998;2023-04-16T09:46:19;11.88;;;6.50;;
14076;SDS011;7114;51.100;13.998;2023-04-16T09:48:45;10.57;;;5.97;;
14076;SDS011;7114;51.100;13.998;2023-04-16T09:51:12;10.50;;;6.18;;
14076;SDS011;7114;51.100;13.998;2023-04-16T09:53:39;10.25;;;5.93;;
14076;SDS011;7114;51.100;13.998;2023-04-16T09:56:06;11.45;;;6.25;;
14076;SDS011;7114;51.100;13.998;2023-04-16T09:58:34;11.05;;;6.28;;
14076;SDS011;7114;51.100;13.998;2023-04-16T10:01:01;9.17;;;5.00;;
14076;SDS011;7114;51.100;13.998;2023-04-16T10:03:28;10.23;;;5.90;;
14076;SDS011;7114;51.100;13.998;2023-04-16T10:05:58;9.60;;;5.30;;
14076;SDS011;7114;51.100;13.998;2023-04-16T10:08:25;8.80;;;5.30;;
14076;SDS011;7114;51.100;13.998;2023-04-16T10:10:52;9.98;;;5.90;;
14076;SDS011;7114;51.100;13.998;2023-04-16T10:13:19;9.37;;;5.20;;
14076;SDS011;7114;51.100;13.998;2023-04-16T10:15:45;8.48;;;4.28;;
14076;SDS011;7114;51.100;13.998;2023-04-16T10:18:11;8.40;;;4.82;;
14076;SDS011;7114;51.100;13.998;2023-04-16T10:20:39;9.98;;;4.90;;
14076;SDS011;7114;51.100;13.998;2023-04-16T10:23:05;8.18;;;4.22;;
14076;SDS011;7114;51.100;13.998;2023-04-16T10:25:31;8.40;;;4.23;;
14076;SDS011;7114;51.100;13.998;2023-04-16T10:27:59;8.55;;;4.70;;
14076;SDS011;7114;51.100;13.998;2023-04-16T10:30:25;8.52;;;4.90;;
14076;SDS011;7114;51.100;13.998;2023-04-16T10:32:52;7.78;;;4.25;;
14076;SDS011;7114;51.100;13.998;2023-04-16T10:35:18;6.90;;;3.80;;
14076;SDS011;7114;51.100;13.998;2023-04-16T10:37:45;9.10;;;4.97;;
14076;SDS011;7114;51.100;13.998;2023-04-16T10:40:21;7.97;;;4.47;;
14076;SDS011;7114;51.100;13.998;2023-04-16T10:42:52;7.22;;;3.92;;
14076;SDS011;7114;51.100;13.998;2023-04-16T10:45:20;7.60;;;3.90;;
14076;SDS011;7114;51.100;13.998;2023-04-16T10:47:54;8.25;;;4.10;;
14076;SDS011;7114;51.100;13.998;2023-04-16T10:50:20;8.63;;;4.17;;
14076;SDS011;7114;51.100;13.998;2023-04-16T10:52:47;7.30;;;3.70;;
14076;SDS011;7114;51.100;13.998;2023-04-16T10:55:14;7.78;;;4.53;;
14076;SDS011;7114;51.100;13.998;2023-04-16T10:57:41;8.82;;;4.15;;
14076;SDS011;7114;51.100;13.998;2023-04-16T11:00:21;7.40;;;4.10;;
14076;SDS011;7114;51.100;13.998;2023-04-16T11:02:51;7.50;;;4.07;;
14076;SDS011;7114;51.100;13.998;2023-04-16T11:05:20;8.02;;;4.75;;
14076;SDS011;7114;51.100;13.998;2023-04-16T11:07:47;6.93;;;3.50;;
14076;SDS011;7114;51.100;13.998;2023-04-16T11:10:13;7.07;;;3.78;;
14076;SDS011;7114;51.100;13.998;2023-04-16T11:12:40;9.27;;;4.43;;
14076;SDS011;7114;51.100;13.998;2023-04-16T11:15:09;8.23;;;4.17;;
14076;SDS011;7114;51.100;13.998;2023-04-16T11:17:38;7.13;;;3.90;;
14076;SDS011;7114;51.100;13.998;2023-04-16T11:20:06;7.53;;;3.08;;
14076;SDS011;7114;51.100;13.998;2023-04-16T11:22:33;7.03;;;3.92;;
14076;SDS011;7114;51.100;13.998;2023-04-16T11:25:00;8.02;;;4.10;;
14076;SDS011;7114;51.100;13.998;2023-04-16T11:27:28;7.57;;;3.77;;
14076;SDS011;7114;51.100;13.998;2023-04-16T11:29:55;7.18;;;3.50;;
14076;SDS011;7114;51.100;13.998;2023-04-16T11:32:23;7.10;;;3.78;;
14076;SDS011;7114;51.100;13.998;2023-04-16T11:34:50;6.55;;;2.88;;
14076;SDS011;7114;51.100;13.998;2023-04-16T11:37:18;6.20;;;3.22;;
14076;SDS011;7114;51.100;13.998;2023-04-16T11:39:49;9.10;;;3.40;;
14076;SDS011;7114;51.100;13.998;2023-04-16T11:42:18;8.75;;;3.60;;
14076;SDS011;7114;51.100;13.998;2023-04-16T11:44:45;6.80;;;3.90;;
14076;SDS011;7114;51.100;13.998;2023-04-16T11:47:11;7.15;;;3.70;;
14076;SDS011;7114;51.100;13.998;2023-04-16T11:49:38;6.28;;;3.05;;
14076;SDS011;7114;51.100;13.998;2023-04-16T11:52:06;6.80;;;3.60;;
14076;SDS011;7114;51.100;13.998;2023-04-16T11:54:32;7.22;;;3.88;;
14076;SDS011;7114;51.100;13.998;2023-04-16T11:57:00;7.88;;;3.80;;
14076;SDS011;7114;51.100;13.998;2023-04-16T11:59:28;7.88;;;4.20;;
14076;SDS011;7114;51.100;13.998;2023-04-16T12:01:55;7.70;;;3.80;;
14076;SDS011;7114;51.100;13.998;2023-04-16T12:04:21;7.10;;;3.63;;
14076;SDS011;7114;51.100;13.998;2023-04-16T12:07:09;7.90;;;4.00;;
14076;SDS011;7114;51.100;13.998;2023-04-16T12:09:36;8.63;;;4.80;;
14076;SDS011;7114;51.100;13.998;2023-04-16T12:12:04;8.07;;;4.55;;
14076;SDS011;7114;51.100;13.998;2023-04-16T12:14:30;7.63;;;4.40;;
14076;SDS011;7114;51.100;13.998;2023-04-16T12:19:47;8.05;;;4.90;;
14076;SDS011;7114;51.100;13.998;2023-04-16T12:22:15;8.07;;;4.63;;
14076;SDS011;7114;51.100;13.998;2023-04-16T12:24:41;7.50;;;4.05;;
14076;SDS011;7114;51.100;13.998;2023-04-16T12:27:07;7.25;;;3.72;;
14076;SDS011;7114;51.100;13.998;2023-04-16T12:29:34;8.10;;;4.87;;
14076;SDS011;7114;51.100;13.998;2023-04-16T12:32:01;6.32;;;3.47;;
14076;SDS011;7114;51.100;13.998;2023-04-16T12:34:27;6.72;;;3.47;;
14076;SDS011;7114;51.100;13.998;2023-04-16T12:37:02;7.78;;;3.72;;
14076;SDS011;7114;51.100;13.998;2023-04-16T12:39:33;6.78;;;3.45;;
14076;SDS011;7114;51.100;13.998;2023-04-16T12:41:59;6.30;;;3.30;;
14076;SDS011;7114;51.100;13.998;2023-04-16T12:44:26;6.63;;;3.83;;
14076;SDS011;7114;51.100;13.998;2023-04-16T12:46:53;8.52;;;4.05;;
14076;SDS011;7114;51.100;13.998;2023-04-16T12:49:19;7.03;;;4.20;;
14076;SDS011;7114;51.100;13.998;2023-04-16T12:51:46;7.82;;;4.45;;
14076;SDS011;7114;51.100;13.998;2023-04-16T12:54:12;6.60;;;3.20;;
14076;SDS011;7114;51.100;13.998;2023-04-16T12:56:40;8.65;;;3.42;;
14076;SDS011;7114;51.100;13.998;2023-04-16T12:59:06;6.85;;;2.80;;
14076;SDS011;7114;51.100;13.998;2023-04-16T13:01:34;5.72;;;2.63;;
14076;SDS011;7114;51.100;13.998;2023-04-16T13:04:01;7.30;;;3.90;;
14076;SDS011;7114;51.100;13.998;2023-04-16T13:06:27;7.60;;;4.50;;
14076;SDS011;7114;51.100;13.998;2023-04-16T13:08:53;6.50;;;3.55;;
14076;SDS011;7114;51.100;13.998;2023-04-16T13:11:20;7.10;;;3.33;;
14076;SDS011;7114;51.100;13.998;2023-04-16T13:13:47;6.63;;;3.53;;
14076;SDS011;7114;51.100;13.998;2023-04-16T13:16:13;7.18;;;3.72;;
14076;SDS011;7114;51.100;13.998;2023-04-16T13:18:40;7.33;;;4.27;;
14076;SDS011;7114;51.100;13.998;2023-04-16T13:21:06;7.70;;;4.55;;
14076;SDS011;7114;51.100;13.998;2023-04-16T13:23:33;7.90;;;4.40;;
14076;SDS011;7114;51.100;13.998;2023-04-16T13:25:59;8.75;;;4.50;;
14076;SDS011;7114;51.100;13.998;2023-04-16T13:28:25;7.43;;;4.30;;
14076;SDS011;7114;51.100;13.998;2023-04-16T13:30:53;9.23;;;4.90;;
14076;SDS011;7114;51.100;13.998;2023-04-16T13:33:19;7.97;;;4.43;;
14076;SDS011;7114;51.100;13.998;2023-04-16T13:35:46;8.25;;;4.53;;
14076;SDS011;7114;51.100;13.998;2023-04-16T13:38:13;7.85;;;4.60;;
14076;SDS011;7114;51.100;13.998;2023-04-16T13:40:39;7.85;;;4.50;;
14076;SDS011;7114;51.100;13.998;2023-04-16T13:43:05;8.87;;;4.30;;
14076;SDS011;7114;51.100;13.998;2023-04-16T13:45:32;8.18;;;4.55;;
14076;SDS011;7114;51.100;13.998;2023-04-16T13:48:00;8.02;;;4.60;;
14076;SDS011;7114;51.100;13.998;2023-04-16T13:50:27;7.60;;;3.80;;
14076;SDS011;7114;51.100;13.998;2023-04-16T13:52:53;8.38;;;4.70;;
14076;SDS011;7114;51.100;13.998;2023-04-16T13:55:20;7.70;;;4.60;;
14076;SDS011;7114;51.100;13.998;2023-04-16T13:57:46;7.65;;;4.40;;
14076;SDS011;7114;51.100;13.998;2023-04-16T14:00:14;7.70;;;4.53;;
14076;SDS011;7114;51.100;13.998;2023-04-16T14:02:41;7.57;;;4.07;;
14076;SDS011;7114;51.100;13.998;2023-04-16T14:05:11;6.88;;;3.50;;
14076;SDS011;7114;51.100;13.998;2023-04-16T14:07:37;12.17;;;7.13;;
14076;SDS011;7114;51.100;13.998;2023-04-16T14:10:03;9.95;;;5.43;;
14076;SDS011;7114;51.100;13.998;2023-04-16T14:12:30;11.00;;;6.35;;
14076;SDS011;7114;51.100;13.998;2023-04-16T14:14:56;8.27;;;4.60;;
14076;SDS011;7114;51.100;13.998;2023-04-16T14:17:22;8.43;;;4.60;;
14076;SDS011;7114;51.100;13.998;2023-04-16T14:19:49;7.70;;;4.13;;
14076;SDS011;7114;51.100;13.998;2023-04-16T14:22:16;8.30;;;4.50;;
14076;SDS011;7114;51.100;13.998;2023-04-16T14:24:43;8.50;;;5.07;;
14076;SDS011;7114;51.100;13.998;2023-04-16T14:27:09;8.07;;;4.65;;
14076;SDS011;7114;51.100;13.998;2023-04-16T14:29:36;8.55;;;4.53;;
14076;SDS011;7114;51.100;13.998;2023-04-16T14:32:02;7.97;;;4.30;;
14076;SDS011;7114;51.100;13.998;2023-04-16T14:34:29;8.55;;;4.22;;
14076;SDS011;7114;51.100;13.998;2023-04-16T14:36:55;8.60;;;4.57;;
14076;SDS011;7114;51.100;13.998;2023-04-16T14:39:23;10.70;;;7.28;;
14076;SDS011;7114;51.100;13.998;2023-04-16T14:41:49;8.10;;;4.50;;